createdAt,value
2018-07-05T00:01:41.900Z,95.90
2018-07-05T00:04:21.654Z,95.80
2018-07-05T00:07:01.469Z,95.80
2018-07-05T00:09:40.951Z,96.30
2018-07-05T00:12:20.601Z,95.90
2018-07-05T00:15:00.224Z,96.00
2018-07-05T00:17:39.944Z,96.10
2018-07-05T00:20:19.609Z,95.90
2018-07-05T00:22:59.131Z,96.10
2018-07-05T00:25:38.638Z,96.40
2018-07-05T00:28:18.074Z,96.40
2018-07-05T00:30:57.556Z,96.30
2018-07-05T00:33:37.142Z,96.30
2018-07-05T00:36:16.833Z,96.50
2018-07-05T00:38:56.452Z,96.70
2018-07-05T00:41:36.024Z,96.80
2018-07-05T00:44:15.960Z,97.00
2018-07-05T00:46:55.719Z,97.00
2018-07-05T00:49:35.295Z,97.10
2018-07-05T00:52:14.950Z,97.20
2018-07-05T00:54:54.522Z,97.30
2018-07-05T00:57:34.011Z,97.20
2018-07-05T01:00:13.682Z,97.20
2018-07-05T01:02:53.223Z,97.10
2018-07-05T01:05:32.919Z,96.90
2018-07-05T01:08:16.400Z,97.20
2018-07-05T01:10:56.045Z,97.50
2018-07-05T01:13:35.843Z,97.60
2018-07-05T01:18:49.075Z,97.70
2018-07-05T01:21:28.726Z,97.60
2018-07-05T01:24:08.315Z,97.80
2018-07-05T01:26:47.954Z,97.80
2018-07-05T01:29:27.501Z,97.70
2018-07-05T01:32:07.049Z,97.70
2018-07-05T01:34:46.573Z,97.60
2018-07-05T01:37:26.036Z,97.30
2018-07-05T01:40:05.470Z,97.50
2018-07-05T01:42:45.067Z,97.50
2018-07-05T01:45:24.550Z,97.50
2018-07-05T01:48:04.283Z,97.30
2018-07-05T01:50:44.054Z,97.40
2018-07-05T01:53:23.566Z,97.40
2018-07-05T01:56:03.067Z,97.20
2018-07-05T01:58:42.907Z,97.20
2018-07-05T02:01:22.369Z,97.40
2018-07-05T02:04:02.041Z,97.90
2018-07-05T02:06:41.824Z,97.80
2018-07-05T02:09:21.342Z,98.00
2018-07-05T02:12:00.916Z,98.00
2018-07-05T02:14:40.446Z,98.00
2018-07-05T02:17:19.991Z,98.10
2018-07-05T02:19:59.667Z,98.20
2018-07-05T02:22:39.207Z,98.30
2018-07-05T02:25:19.044Z,98.40
2018-07-05T02:27:58.819Z,98.30
2018-07-05T02:30:38.367Z,98.30
2018-07-05T02:33:17.938Z,98.20
2018-07-05T02:35:57.392Z,98.20
2018-07-05T02:38:36.919Z,98.30
2018-07-05T02:41:16.531Z,98.30
2018-07-05T02:43:56.231Z,98.40
2018-07-05T02:46:35.635Z,98.50
2018-07-05T02:49:14.988Z,98.50
2018-07-05T02:51:54.587Z,98.40
2018-07-05T02:54:34.279Z,98.60
2018-07-05T02:57:14.045Z,98.60
2018-07-05T02:59:53.664Z,98.60
2018-07-05T03:02:33.370Z,98.60
2018-07-05T03:05:13.024Z,98.80
2018-07-05T03:07:52.697Z,98.70
2018-07-05T03:10:32.113Z,98.70
2018-07-05T03:13:11.606Z,98.70
2018-07-05T03:15:51.293Z,98.80
2018-07-05T03:18:30.878Z,98.80
2018-07-05T03:21:10.439Z,99.00
2018-07-05T03:23:50.128Z,99.20
2018-07-05T03:26:29.605Z,98.90
2018-07-05T03:29:09.288Z,99.00
2018-07-05T03:31:48.940Z,99.00
2018-07-05T03:34:28.599Z,98.90
2018-07-05T03:37:08.228Z,98.70
2018-07-05T03:42:21.446Z,98.90
2018-07-05T03:45:01.079Z,98.80
2018-07-05T03:47:40.726Z,98.70
2018-07-05T03:50:20.386Z,98.70
2018-07-05T03:52:59.964Z,98.60
2018-07-05T03:55:39.747Z,98.70
2018-07-05T03:58:19.315Z,98.70
2018-07-05T04:00:58.918Z,98.60
2018-07-05T04:03:38.462Z,98.70
2018-07-05T04:06:18.150Z,98.50
2018-07-05T04:08:57.660Z,98.60
2018-07-05T04:11:37.574Z,98.60
2018-07-05T04:14:17.171Z,98.80
2018-07-05T04:16:56.771Z,99.10
2018-07-05T04:19:40.631Z,99.30
2018-07-05T04:22:20.311Z,99.50
2018-07-05T04:24:59.851Z,99.70
2018-07-05T04:27:39.516Z,99.80
2018-07-05T04:30:19.240Z,99.90
2018-07-05T04:32:58.969Z,99.80
2018-07-05T04:35:38.620Z,99.90
2018-07-05T04:38:18.382Z,99.90
2018-07-05T04:40:57.885Z,99.90
2018-07-05T04:43:37.490Z,99.90
2018-07-05T04:46:17.203Z,99.90
2018-07-05T04:48:56.855Z,99.90
2018-07-05T04:51:36.694Z,99.90
2018-07-05T04:54:16.363Z,99.90
2018-07-05T04:56:55.960Z,99.60
2018-07-05T04:59:35.647Z,99.50
2018-07-05T05:02:15.163Z,99.20
2018-07-05T05:04:54.836Z,99.20
2018-07-05T05:07:34.421Z,99.20
2018-07-05T05:10:13.923Z,98.90
2018-07-05T05:12:53.681Z,98.70
2018-07-05T05:18:06.905Z,98.40
2018-07-05T05:20:46.541Z,97.60
2018-07-05T05:23:26.155Z,97.40
2018-07-05T05:26:05.744Z,97.30
2018-07-05T05:28:45.381Z,96.90
2018-07-05T05:31:24.885Z,96.50
2018-07-05T05:34:04.500Z,97.00
2018-07-05T05:36:44.047Z,97.10
2018-07-05T05:39:23.646Z,97.30
2018-07-05T05:42:03.310Z,97.10
2018-07-05T05:44:42.855Z,97.40
2018-07-05T05:47:22.446Z,97.10
2018-07-05T05:50:02.178Z,97.20
2018-07-05T05:52:41.724Z,96.80
2018-07-05T05:55:21.332Z,96.40
2018-07-05T05:58:00.926Z,96.20
2018-07-05T06:00:40.485Z,95.80
2018-07-05T06:03:19.965Z,95.50
2018-07-05T06:05:59.683Z,95.50
2018-07-05T06:08:39.225Z,95.20
2018-07-05T06:11:18.777Z,95.10
2018-07-05T06:13:58.373Z,95.10
2018-07-05T06:16:37.821Z,94.90
2018-07-05T06:19:17.354Z,94.30
2018-07-05T06:21:56.897Z,93.90
2018-07-05T06:24:36.636Z,94.10
2018-07-05T06:27:16.283Z,93.80
2018-07-05T06:29:55.911Z,93.80
2018-07-05T06:32:35.431Z,93.60
2018-07-05T06:35:14.991Z,93.30
2018-07-05T06:37:54.515Z,92.60
2018-07-05T06:40:34.050Z,92.50
2018-07-05T06:43:13.599Z,92.00
2018-07-05T06:45:53.023Z,91.70
2018-07-05T06:48:32.640Z,91.10
2018-07-05T06:51:12.146Z,91.40
2018-07-05T06:53:51.706Z,91.50
2018-07-05T06:56:31.207Z,91.40
2018-07-05T06:59:10.840Z,90.80
2018-07-05T07:01:50.511Z,91.00
2018-07-05T07:04:30.982Z,91.10
2018-07-05T07:07:11.240Z,90.90
2018-07-05T07:09:50.731Z,90.60
2018-07-05T07:12:30.382Z,91.30
2018-07-05T07:15:09.791Z,90.10
2018-07-05T07:17:49.506Z,89.80
2018-07-05T07:20:29.192Z,89.90
2018-07-05T07:23:08.603Z,90.30
2018-07-05T07:25:48.284Z,89.40
2018-07-05T07:28:27.911Z,88.40
2018-07-05T07:31:07.461Z,87.20
2018-07-05T07:33:46.995Z,87.80
2018-07-05T07:36:26.519Z,88.70
2018-07-05T07:39:06.303Z,86.90
2018-07-05T07:41:42.728Z,89.00
2018-07-05T07:44:09.891Z,86.50
2018-07-05T07:46:37.068Z,85.90
2018-07-05T07:49:04.422Z,83.80
2018-07-05T07:51:31.592Z,84.90
2018-07-05T07:53:58.811Z,83.90
2018-07-05T07:56:25.988Z,84.30
2018-07-05T07:58:53.167Z,83.60
2018-07-05T08:03:47.743Z,84.30
2018-07-05T08:06:29.300Z,83.50
2018-07-05T08:08:56.468Z,83.20
2018-07-05T08:11:23.634Z,82.50
2018-07-05T08:13:50.794Z,81.70
2018-07-05T08:16:17.971Z,80.40
2018-07-05T08:21:12.548Z,79.30
2018-07-05T08:23:39.736Z,79.20
2018-07-05T08:26:06.897Z,76.80
2018-07-05T08:28:34.066Z,76.70
2018-07-05T08:31:01.231Z,76.80
2018-07-05T08:33:28.416Z,76.70
2018-07-05T08:35:55.582Z,75.70
2018-07-05T08:38:22.764Z,74.20
2018-07-05T08:40:49.947Z,75.70
2018-07-05T08:43:17.134Z,75.00
2018-07-05T08:45:44.308Z,75.60
2018-07-05T08:48:11.526Z,74.90
2018-07-05T08:50:38.705Z,75.90
2018-07-05T08:53:05.875Z,75.10
2018-07-05T08:55:33.030Z,74.10
2018-07-05T08:58:00.235Z,74.30
2018-07-05T09:00:27.407Z,73.70
2018-07-05T09:02:54.573Z,72.00
2018-07-05T09:05:21.815Z,73.10
2018-07-05T09:07:48.969Z,72.10
2018-07-05T09:10:16.127Z,73.00
2018-07-05T09:12:43.316Z,70.50
2018-07-05T09:15:10.484Z,71.70
2018-07-05T09:17:37.692Z,72.80
2018-07-05T09:20:04.840Z,71.90
2018-07-05T09:22:32.015Z,70.80
2018-07-05T09:24:59.412Z,70.20
2018-07-05T09:27:26.581Z,68.10
2018-07-05T09:29:53.759Z,72.00
2018-07-05T09:32:20.937Z,71.70
2018-07-05T09:34:48.116Z,71.70
2018-07-05T09:37:15.302Z,72.90
2018-07-05T09:39:42.458Z,72.30
2018-07-05T09:42:09.615Z,73.70
2018-07-05T09:44:36.793Z,73.80
2018-07-05T09:47:03.969Z,72.60
2018-07-05T09:49:31.124Z,73.70
2018-07-05T09:51:58.281Z,73.20
2018-07-05T09:54:25.452Z,73.50
2018-07-05T09:56:52.760Z,72.90
2018-07-05T09:59:19.930Z,72.70
2018-07-05T10:01:47.106Z,71.60
2018-07-05T10:04:14.271Z,71.00
2018-07-05T10:06:41.472Z,72.50
2018-07-05T10:09:08.648Z,71.70
2018-07-05T10:11:35.811Z,72.30
2018-07-05T10:14:02.997Z,70.70
2018-07-05T10:16:30.162Z,71.30
2018-07-05T10:18:57.369Z,71.20
2018-07-05T10:21:24.511Z,72.00
2018-07-05T10:23:51.692Z,72.00
2018-07-05T10:26:18.884Z,71.20
2018-07-05T10:28:58.592Z,72.00
2018-07-05T10:31:38.172Z,70.70
2018-07-05T10:34:05.345Z,70.10
2018-07-05T10:36:32.512Z,71.00
2018-07-05T10:38:59.697Z,71.60
2018-07-05T10:41:39.336Z,70.50
2018-07-05T10:44:19.031Z,71.00
2018-07-05T10:46:58.898Z,71.10
2018-07-05T10:49:38.519Z,71.50
2018-07-05T10:52:18.197Z,71.40
2018-07-05T10:54:57.806Z,72.00
2018-07-05T10:57:37.549Z,71.70
2018-07-05T11:00:17.192Z,71.90
2018-07-05T11:02:56.754Z,70.40
2018-07-05T11:05:36.500Z,71.70
2018-07-05T11:08:16.229Z,71.00
2018-07-05T11:10:55.766Z,71.30
2018-07-05T11:13:35.313Z,71.20
2018-07-05T11:16:14.960Z,71.90
2018-07-05T11:18:54.523Z,71.00
2018-07-05T11:21:34.029Z,70.40
2018-07-05T11:24:13.603Z,71.00
2018-07-05T11:26:53.368Z,70.50
2018-07-05T11:29:33.030Z,71.90
2018-07-05T11:32:12.508Z,71.30
2018-07-05T11:34:52.063Z,71.30
2018-07-05T11:37:31.740Z,72.10
2018-07-05T11:40:10.966Z,70.70
2018-07-05T11:42:50.399Z,69.90
2018-07-05T11:45:29.972Z,71.20
2018-07-05T11:48:09.552Z,71.20
2018-07-05T11:50:49.239Z,69.60
2018-07-05T11:53:28.744Z,69.90
2018-07-05T11:56:08.299Z,69.80
2018-07-05T11:58:47.741Z,70.30
2018-07-05T12:01:27.320Z,71.10
2018-07-05T12:04:06.825Z,71.10
2018-07-05T12:06:46.332Z,70.80
2018-07-05T12:09:25.855Z,70.10
2018-07-05T12:12:05.425Z,70.30
2018-07-05T12:14:44.964Z,69.50
2018-07-05T12:17:24.517Z,69.90
2018-07-05T12:20:04.183Z,69.60
2018-07-05T12:22:43.815Z,70.70
2018-07-05T12:25:23.359Z,70.30
2018-07-05T12:28:02.883Z,69.40
2018-07-05T12:30:42.488Z,69.90
2018-07-05T12:33:21.971Z,71.30
2018-07-05T12:36:01.680Z,70.90
2018-07-05T12:41:14.983Z,70.30
2018-07-05T12:43:54.419Z,71.10
2018-07-05T12:46:34.121Z,70.80
2018-07-05T12:49:13.754Z,70.40
2018-07-05T12:51:53.568Z,70.10
2018-07-05T12:54:33.002Z,71.00
2018-07-05T12:57:12.821Z,70.70
2018-07-05T12:59:52.373Z,71.10
2018-07-05T13:02:31.920Z,70.50
2018-07-05T13:05:11.745Z,70.40
2018-07-05T13:07:51.440Z,71.20
2018-07-05T13:10:30.979Z,71.00
2018-07-05T13:13:10.419Z,71.50
2018-07-05T13:15:50.076Z,70.80
2018-07-05T13:18:29.689Z,71.10
2018-07-05T13:21:09.479Z,71.30
2018-07-05T13:23:49.193Z,71.10
2018-07-05T13:26:28.718Z,71.50
2018-07-05T13:29:08.274Z,72.30
2018-07-05T13:31:47.793Z,71.50
2018-07-05T13:34:27.467Z,71.80
2018-07-05T13:37:07.307Z,69.60
2018-07-05T13:39:46.753Z,70.50
2018-07-05T13:42:26.283Z,70.60
2018-07-05T13:45:05.711Z,70.90
2018-07-05T13:47:45.339Z,71.30
2018-07-05T13:50:24.898Z,71.00
2018-07-05T13:53:04.624Z,72.30
2018-07-05T13:55:44.237Z,72.20
2018-07-05T13:58:23.844Z,71.70
2018-07-05T14:01:03.431Z,71.30
2018-07-05T14:03:42.804Z,72.40
2018-07-05T14:06:22.407Z,71.80
2018-07-05T14:09:01.890Z,72.50
2018-07-05T14:11:41.435Z,73.20
2018-07-05T14:14:21.063Z,72.80
2018-07-05T14:17:00.610Z,72.70
2018-07-05T14:19:39.978Z,72.80
2018-07-05T14:22:19.652Z,72.80
2018-07-05T14:24:59.378Z,72.70
2018-07-05T14:27:38.997Z,73.30
2018-07-05T14:30:18.572Z,73.20
2018-07-05T14:32:58.209Z,72.60
2018-07-05T14:35:37.707Z,74.80
2018-07-05T14:38:17.267Z,73.50
2018-07-05T14:40:56.810Z,74.00
2018-07-05T14:43:36.299Z,74.70
2018-07-05T14:46:15.827Z,75.00
2018-07-05T14:48:55.400Z,74.70
2018-07-05T14:51:34.911Z,74.70
2018-07-05T14:54:14.428Z,75.50
2018-07-05T14:56:54.067Z,75.90
2018-07-05T14:59:33.646Z,75.50
2018-07-05T15:02:13.223Z,76.10
2018-07-05T15:04:53.069Z,76.60
2018-07-05T15:07:32.543Z,76.80
2018-07-05T15:10:12.067Z,77.20
2018-07-05T15:12:52.353Z,75.40
2018-07-05T15:15:31.965Z,76.20
2018-07-05T15:18:11.384Z,75.50
2018-07-05T15:20:51.183Z,76.10
2018-07-05T15:23:30.783Z,75.70
2018-07-05T15:26:10.536Z,75.70
2018-07-05T15:28:50.227Z,74.60
2018-07-05T15:31:29.867Z,74.70
2018-07-05T15:34:09.616Z,75.10
2018-07-05T15:36:49.122Z,74.30
2018-07-05T15:39:28.667Z,73.50
2018-07-05T15:42:08.339Z,74.60
2018-07-05T15:44:47.827Z,75.40
2018-07-05T15:47:27.411Z,74.80
2018-07-05T15:50:07.135Z,75.50
2018-07-05T15:52:46.578Z,76.20
2018-07-05T15:55:26.224Z,75.60
2018-07-05T15:58:05.874Z,75.30
2018-07-05T16:00:45.551Z,75.40
2018-07-05T16:03:25.251Z,74.90
2018-07-05T16:06:05.638Z,74.20
2018-07-05T16:08:45.375Z,74.60
2018-07-05T16:11:24.892Z,73.80
2018-07-05T16:14:04.531Z,74.00
2018-07-05T16:16:44.172Z,74.00
2018-07-05T16:19:23.863Z,73.90
2018-07-05T16:22:03.995Z,73.70
2018-07-05T16:24:43.603Z,74.30
2018-07-05T16:27:23.238Z,73.90
2018-07-05T16:30:02.815Z,73.90
2018-07-05T16:32:42.475Z,74.30
2018-07-05T16:35:22.247Z,74.70
2018-07-05T16:38:01.791Z,73.70
2018-07-05T16:40:41.336Z,73.80
2018-07-05T16:43:20.890Z,74.60
2018-07-05T16:46:00.729Z,74.10
2018-07-05T16:48:40.358Z,74.30
2018-07-05T16:51:19.903Z,74.10
2018-07-05T16:53:59.604Z,74.50
2018-07-05T16:56:39.282Z,74.30
2018-07-05T16:59:18.827Z,73.80
2018-07-05T17:01:58.600Z,74.10
2018-07-05T17:04:38.222Z,73.90
2018-07-05T17:07:17.878Z,73.50
2018-07-05T17:09:57.582Z,73.70
2018-07-05T17:12:37.058Z,73.50
2018-07-05T17:15:16.761Z,73.00
2018-07-05T17:17:56.548Z,73.30
2018-07-05T17:20:36.396Z,73.90
2018-07-05T17:23:16.146Z,74.10
2018-07-05T17:25:55.755Z,73.90
2018-07-05T17:28:35.399Z,73.30
2018-07-05T17:31:14.833Z,74.00
2018-07-05T17:33:54.339Z,72.90
2018-07-05T17:36:34.022Z,73.10
2018-07-05T17:39:13.581Z,73.80
2018-07-05T17:41:53.502Z,74.10
2018-07-05T17:44:33.231Z,74.60
2018-07-05T17:47:12.710Z,74.90
2018-07-05T17:49:52.123Z,75.30
2018-07-05T17:52:31.671Z,75.30
2018-07-05T17:55:11.326Z,75.80
2018-07-05T17:57:50.995Z,75.70
2018-07-05T18:00:30.434Z,76.00
2018-07-05T18:03:09.975Z,75.60
2018-07-05T18:05:49.512Z,75.40
2018-07-05T18:08:29.044Z,75.60
2018-07-05T18:11:08.579Z,75.70
2018-07-05T18:13:48.202Z,76.10
2018-07-05T18:16:27.762Z,75.80
2018-07-05T18:19:07.360Z,75.60
2018-07-05T18:21:46.824Z,75.90
2018-07-05T18:24:26.322Z,75.50
2018-07-05T18:27:05.942Z,75.80
2018-07-05T18:29:45.479Z,75.50
2018-07-05T18:32:25.045Z,76.20
2018-07-05T18:35:04.582Z,75.90
2018-07-05T18:37:44.186Z,76.20
2018-07-05T18:40:23.879Z,76.20
2018-07-05T18:43:03.422Z,76.00
2018-07-05T18:45:43.033Z,76.40
2018-07-05T18:48:22.679Z,76.40
2018-07-05T18:51:02.280Z,76.30
2018-07-05T18:53:41.976Z,76.90
2018-07-05T18:56:21.432Z,77.50
2018-07-05T18:59:01.187Z,77.70
2018-07-05T19:01:40.882Z,78.70
2018-07-05T19:04:20.404Z,79.40
2018-07-05T19:07:00.116Z,79.90
2018-07-05T19:09:39.762Z,80.60
2018-07-05T19:12:19.287Z,81.00
2018-07-05T19:14:58.879Z,81.60
2018-07-05T19:17:38.354Z,81.80
2018-07-05T19:20:17.858Z,81.90
2018-07-05T19:22:57.458Z,82.20
2018-07-05T19:25:36.968Z,83.20
2018-07-05T19:28:16.568Z,82.60
2018-07-05T19:30:56.244Z,83.20
2018-07-05T19:33:35.873Z,83.10
2018-07-05T19:36:15.496Z,83.50
2018-07-05T19:38:55.236Z,84.00
2018-07-05T19:41:34.936Z,84.20
2018-07-05T19:44:14.495Z,84.00
2018-07-05T19:46:54.281Z,84.70
2018-07-05T19:49:33.866Z,85.20
2018-07-05T19:52:13.772Z,85.50
2018-07-05T19:54:53.768Z,85.80
2018-07-05T19:57:33.295Z,86.20
2018-07-05T20:00:12.999Z,86.70
2018-07-05T20:02:52.572Z,87.00
2018-07-05T20:05:32.123Z,87.30
2018-07-05T20:08:11.743Z,87.80
2018-07-05T20:10:55.592Z,88.10
2018-07-05T20:16:08.838Z,89.00
2018-07-05T20:18:48.592Z,88.90
2018-07-05T20:21:28.190Z,88.90
2018-07-05T20:24:07.915Z,89.10
2018-07-05T20:26:47.526Z,89.10
2018-07-05T20:29:27.114Z,89.20
2018-07-05T20:32:06.680Z,89.30
2018-07-05T20:34:46.206Z,89.70
2018-07-05T20:37:25.635Z,89.80
2018-07-05T20:40:05.411Z,90.00
2018-07-05T20:42:44.984Z,90.10
2018-07-05T20:45:24.651Z,90.30
2018-07-05T20:48:04.344Z,90.50
2018-07-05T20:50:43.868Z,90.70
2018-07-05T20:53:23.626Z,90.80
2018-07-05T20:56:03.197Z,90.90
2018-07-05T20:58:42.921Z,90.90
2018-07-05T21:01:22.467Z,91.00
2018-07-05T21:04:02.167Z,90.90
2018-07-05T21:06:41.735Z,90.80
2018-07-05T21:09:21.619Z,90.90
2018-07-05T21:12:01.316Z,90.90
2018-07-05T21:14:40.876Z,91.00
2018-07-05T21:17:20.673Z,91.00
2018-07-05T21:20:00.435Z,91.00
2018-07-05T21:22:40.231Z,91.10
2018-07-05T21:25:19.939Z,91.00
2018-07-05T21:27:59.491Z,91.20
2018-07-05T21:30:39.171Z,91.40
2018-07-05T21:33:18.783Z,91.70
2018-07-05T21:35:58.452Z,92.20
2018-07-05T21:38:38.278Z,92.10
2018-07-05T21:41:17.935Z,92.20
2018-07-05T21:43:57.639Z,92.30
2018-07-05T21:46:37.182Z,92.30
2018-07-05T21:49:16.644Z,92.50
2018-07-05T21:51:56.352Z,92.60
2018-07-05T21:54:35.909Z,92.80
2018-07-05T21:57:15.580Z,93.00
2018-07-05T21:59:55.231Z,93.40
2018-07-05T22:02:34.787Z,93.30
2018-07-05T22:05:14.418Z,93.40
2018-07-05T22:07:54.807Z,93.40
2018-07-05T22:10:34.346Z,93.50
2018-07-05T22:13:13.827Z,93.50
2018-07-05T22:15:53.385Z,93.60
2018-07-05T22:18:38.618Z,93.70
2018-07-05T22:21:18.765Z,93.80
2018-07-05T22:24:03.770Z,93.90
2018-07-05T22:26:44.713Z,94.00
2018-07-05T22:29:29.942Z,93.90
2018-07-05T22:32:09.523Z,93.90
2018-07-05T22:34:49.051Z,93.80
2018-07-05T22:37:28.575Z,93.90
2018-07-05T22:40:08.135Z,94.00
2018-07-05T22:42:47.832Z,94.20
2018-07-05T22:45:27.361Z,94.10
2018-07-05T22:48:07.180Z,94.20
2018-07-05T22:50:46.710Z,94.20
2018-07-05T22:53:26.255Z,94.00
2018-07-05T22:56:05.990Z,94.50
2018-07-05T22:58:45.804Z,94.60
2018-07-05T23:01:25.526Z,95.00
2018-07-05T23:04:05.122Z,94.70
2018-07-05T23:06:44.846Z,94.80
2018-07-05T23:09:24.418Z,95.00
2018-07-05T23:12:04.036Z,94.90
2018-07-05T23:14:43.664Z,94.90
2018-07-05T23:17:23.260Z,95.00
2018-07-05T23:20:04.023Z,95.20
2018-07-05T23:22:43.572Z,95.30
2018-07-05T23:25:23.103Z,95.20
2018-07-05T23:28:02.647Z,95.40
2018-07-05T23:30:42.303Z,95.50
2018-07-05T23:33:21.921Z,95.70
2018-07-05T23:36:01.547Z,95.50
2018-07-05T23:38:41.119Z,96.00
2018-07-05T23:41:20.780Z,96.00
2018-07-05T23:44:00.275Z,96.10
2018-07-05T23:46:39.844Z,96.30
2018-07-05T23:49:19.523Z,96.30
2018-07-05T23:54:32.762Z,96.50
2018-07-05T23:57:12.278Z,96.60
2018-07-05T23:59:51.947Z,96.70
